CYFS

Fort Simpson Airport

Airport
ICAO code
CYFS
Summary
ICAO Region
NAM
ICAO Territory
Location

Fort Simpson, Northwest Territories,

Coordinates
61° 45' 37" N , 121° 14' 13" W
KCC
Airport BS
Non Avian Wildlife Hazards to Aircraft
Airport CFIT
Altimeter Temperature Error Correction
Airport GND
Aircraft Ground De/Anti Icing
Metar
CYFS 181316Z VRB03KT 15SM FEW092 FEW120 FEW250 05/M04 A2996 RMK AC1AC1CI1 AC TR CI TR SLP155

Description

Regional airport serving the town of Fort Simpson, Northwest Territories, Canada.

Climatology

Subarctic climate (Köppen climate classification Dfc) - long, usually very cold winters, and short, cool to mild summers.

Runways

Designator Length Width Surface Rops
14/32 1829 46 ASP No/No

Airport map

Aerial View

SKYbrary Partners:

Safety knowledge contributed by: